createdAt,value
2022-10-29T00:02:13.816Z,15.60
2022-10-29T00:04:40.652Z,15.50
2022-10-29T00:07:07.359Z,15.50
2022-10-29T00:09:35.530Z,15.50
2022-10-29T00:12:02.552Z,15.50
2022-10-29T00:14:29.328Z,15.50
2022-10-29T00:16:57.117Z,15.50
2022-10-29T00:19:26.084Z,15.40
2022-10-29T00:21:52.782Z,15.40
2022-10-29T00:24:19.463Z,15.40
2022-10-29T00:26:46.314Z,15.40
2022-10-29T00:29:13.047Z,15.30
2022-10-29T00:31:39.789Z,15.30
2022-10-29T00:34:06.495Z,15.30
2022-10-29T00:36:33.160Z,15.30
2022-10-29T00:38:59.898Z,15.20
2022-10-29T00:41:31.520Z,15.20
2022-10-29T00:44:23.424Z,15.20
2022-10-29T00:46:56.121Z,15.20
2022-10-29T00:49:29.911Z,15.20
2022-10-29T00:51:57.366Z,15.20
2022-10-29T00:54:24.260Z,15.10
2022-10-29T00:56:54.629Z,15.10
2022-10-29T00:59:21.512Z,15.10
2022-10-29T01:01:49.269Z,15.00
2022-10-29T01:04:17.614Z,15.00
2022-10-29T01:06:44.999Z,14.90
2022-10-29T01:09:11.816Z,14.90
2022-10-29T01:11:46.820Z,14.90
2022-10-29T01:14:49.357Z,14.80
2022-10-29T01:17:41.153Z,14.80
2022-10-29T01:20:46.502Z,14.80
2022-10-29T01:23:41.044Z,14.70
2022-10-29T01:26:48.033Z,14.70
2022-10-29T01:29:49.666Z,14.60
2022-10-29T01:32:24.664Z,14.60
2022-10-29T01:35:03.467Z,14.60
2022-10-29T01:37:37.581Z,14.60
2022-10-29T01:40:25.890Z,14.70
2022-10-29T01:43:07.392Z,14.60
2022-10-29T01:45:45.384Z,14.60
2022-10-29T01:48:25.748Z,14.60
2022-10-29T01:51:00.322Z,14.60
2022-10-29T01:53:29.422Z,14.60
2022-10-29T01:55:56.317Z,14.60
2022-10-29T01:58:24.745Z,14.60
2022-10-29T02:01:13.136Z,14.60
2022-10-29T02:03:54.729Z,14.60
2022-10-29T02:06:41.359Z,14.60
2022-10-29T02:09:22.905Z,14.60
2022-10-29T02:12:05.176Z,14.60
2022-10-29T02:15:07.543Z,14.60
2022-10-29T02:17:35.138Z,14.60
2022-10-29T02:20:07.305Z,14.60
2022-10-29T02:22:34.217Z,14.60
2022-10-29T02:25:02.451Z,14.60
2022-10-29T02:27:31.820Z,14.60
2022-10-29T02:29:58.477Z,14.60
2022-10-29T02:32:25.158Z,14.60
2022-10-29T02:34:52.038Z,14.70
2022-10-29T02:37:25.909Z,14.70
2022-10-29T02:39:52.687Z,14.70
2022-10-29T02:42:19.418Z,14.70
2022-10-29T02:44:46.123Z,14.70
2022-10-29T02:47:12.836Z,14.70
2022-10-29T02:49:39.539Z,14.70
2022-10-29T02:52:06.389Z,14.70
2022-10-29T02:54:33.073Z,14.70
2022-10-29T02:56:59.871Z,14.70
2022-10-29T02:59:26.588Z,14.70
2022-10-29T03:01:53.431Z,14.70
2022-10-29T03:04:20.767Z,14.70
2022-10-29T03:06:49.433Z,14.70
2022-10-29T03:09:16.126Z,14.70
2022-10-29T03:11:43.103Z,14.70
2022-10-29T03:14:09.856Z,14.70
2022-10-29T03:16:36.542Z,14.70
2022-10-29T03:19:03.593Z,14.70
2022-10-29T03:21:30.257Z,14.70
2022-10-29T03:23:56.955Z,14.70
2022-10-29T03:26:23.893Z,14.60
2022-10-29T03:28:50.669Z,14.60
2022-10-29T03:31:17.382Z,14.70
2022-10-29T03:33:44.090Z,14.70
2022-10-29T03:36:10.899Z,14.70
2022-10-29T03:38:37.675Z,14.60
2022-10-29T03:41:08.717Z,14.70
2022-10-29T03:43:39.317Z,14.60
2022-10-29T03:46:06.632Z,14.70
2022-10-29T03:48:34.202Z,14.70
2022-10-29T03:51:05.811Z,14.70
2022-10-29T03:53:33.665Z,14.70
2022-10-29T03:56:00.875Z,14.70
2022-10-29T03:58:28.419Z,14.70
2022-10-29T04:00:56.483Z,14.70
2022-10-29T04:03:23.559Z,14.80
2022-10-29T04:05:50.229Z,14.80
2022-10-29T04:08:17.006Z,14.80
2022-10-29T04:10:48.323Z,14.80
2022-10-29T04:13:15.795Z,14.80
2022-10-29T04:15:42.787Z,14.80
2022-10-29T04:18:13.256Z,14.80
2022-10-29T04:21:01.048Z,14.80
2022-10-29T04:29:01.622Z,14.70
2022-10-29T04:31:28.303Z,14.70
2022-10-29T04:33:54.984Z,14.70
2022-10-29T04:36:21.760Z,14.70
2022-10-29T04:38:51.340Z,14.70
2022-10-29T04:41:18.067Z,14.70
2022-10-29T04:43:44.789Z,14.70
2022-10-29T04:46:11.593Z,14.60
2022-10-29T04:48:38.516Z,14.60
2022-10-29T04:51:05.474Z,14.60
2022-10-29T04:53:32.359Z,14.60
2022-10-29T04:56:01.621Z,14.60
2022-10-29T04:58:31.632Z,14.60
2022-10-29T05:01:02.819Z,14.50
2022-10-29T05:03:29.726Z,14.50
2022-10-29T05:05:56.705Z,14.50
2022-10-29T05:08:24.734Z,14.40
2022-10-29T05:10:54.282Z,14.40
2022-10-29T05:13:21.143Z,14.40
2022-10-29T05:15:53.941Z,14.40
2022-10-29T05:18:20.983Z,14.30
2022-10-29T05:20:47.838Z,14.30
2022-10-29T05:23:14.612Z,14.30
2022-10-29T05:25:42.056Z,14.30
2022-10-29T05:28:19.036Z,14.30
2022-10-29T05:30:47.283Z,14.30
2022-10-29T05:33:19.645Z,14.30
2022-10-29T05:35:46.836Z,14.30
2022-10-29T05:38:16.163Z,14.30
2022-10-29T05:40:45.090Z,14.30
2022-10-29T05:43:13.952Z,14.20
2022-10-29T05:45:43.288Z,14.30
2022-10-29T05:50:42.784Z,14.20
2022-10-29T05:53:13.995Z,14.20
2022-10-29T05:55:41.761Z,14.30
2022-10-29T05:58:11.911Z,14.20
2022-10-29T06:00:41.170Z,14.30
2022-10-29T06:03:19.648Z,14.30
2022-10-29T06:05:48.108Z,14.30
2022-10-29T06:08:15.207Z,14.30
2022-10-29T06:10:41.907Z,14.40
2022-10-29T06:13:13.853Z,14.40
2022-10-29T06:15:40.809Z,14.40
2022-10-29T06:18:11.216Z,14.40
2022-10-29T06:20:39.395Z,14.40
2022-10-29T06:23:06.675Z,14.40
2022-10-29T06:25:33.509Z,14.40
2022-10-29T06:28:19.250Z,14.50
2022-10-29T06:30:49.094Z,14.50
2022-10-29T06:33:17.671Z,14.60
2022-10-29T06:35:44.856Z,14.60
2022-10-29T06:38:12.514Z,14.70
2022-10-29T06:40:40.559Z,14.70
2022-10-29T06:43:13.371Z,14.70
2022-10-29T06:45:40.149Z,14.70
2022-10-29T06:48:07.173Z,14.70
2022-10-29T06:50:34.281Z,14.80
2022-10-29T06:53:06.397Z,14.80
2022-10-29T06:55:35.893Z,14.80
2022-10-29T06:58:16.829Z,14.90
2022-10-29T07:00:44.253Z,14.90
2022-10-29T07:03:15.296Z,14.90
2022-10-29T07:05:42.182Z,15.00
2022-10-29T07:08:08.903Z,15.00
2022-10-29T07:10:36.154Z,15.00
2022-10-29T07:13:03.628Z,15.10
2022-10-29T07:15:31.209Z,15.10
2022-10-29T07:18:00.150Z,15.20
2022-10-29T07:20:31.612Z,15.20
2022-10-29T07:23:00.293Z,15.20
2022-10-29T07:25:28.074Z,15.30
2022-10-29T07:27:55.289Z,15.30
2022-10-29T07:30:22.311Z,15.30
2022-10-29T07:32:49.129Z,15.40
2022-10-29T07:35:15.814Z,15.50
2022-10-29T07:37:42.514Z,15.50
2022-10-29T07:40:10.628Z,15.60
2022-10-29T07:42:37.426Z,15.60
2022-10-29T07:45:04.583Z,15.70
2022-10-29T07:47:31.349Z,15.70
2022-10-29T07:49:58.228Z,15.70
2022-10-29T07:52:25.061Z,15.80
2022-10-29T07:54:51.711Z,15.80
2022-10-29T07:57:18.452Z,15.90
2022-10-29T07:59:49.267Z,16.00
2022-10-29T08:02:15.976Z,16.00
2022-10-29T08:04:42.730Z,16.10
2022-10-29T08:07:09.412Z,16.40
2022-10-29T08:09:36.084Z,16.90
2022-10-29T08:12:05.144Z,17.50
2022-10-29T08:14:31.817Z,17.90
2022-10-29T08:17:00.226Z,18.00
2022-10-29T08:19:27.089Z,18.30
2022-10-29T08:21:53.766Z,18.70
2022-10-29T08:24:23.268Z,18.90
2022-10-29T08:26:50.604Z,18.90
2022-10-29T08:29:17.843Z,18.60
2022-10-29T08:31:44.598Z,18.40
2022-10-29T08:34:11.563Z,18.20
2022-10-29T08:36:38.338Z,18.00
2022-10-29T08:39:05.011Z,18.00
2022-10-29T08:41:37.182Z,18.00
2022-10-29T08:44:14.457Z,18.30
2022-10-29T08:46:53.763Z,18.50
2022-10-29T08:49:46.992Z,18.50
2022-10-29T08:52:24.237Z,18.50
2022-10-29T08:55:14.950Z,18.40
2022-10-29T08:57:58.336Z,18.40
2022-10-29T09:00:34.474Z,18.30
2022-10-29T09:03:01.740Z,18.30
2022-10-29T09:05:39.053Z,18.20
2022-10-29T09:08:24.597Z,18.20
2022-10-29T09:10:57.084Z,18.20
2022-10-29T09:14:08.233Z,18.20
2022-10-29T09:16:50.027Z,18.20
2022-10-29T09:19:44.123Z,18.20
2022-10-29T09:22:49.001Z,18.20
2022-10-29T09:25:39.675Z,18.30
2022-10-29T09:28:19.346Z,18.30
2022-10-29T09:30:59.683Z,18.40
2022-10-29T09:33:26.971Z,18.50
2022-10-29T09:35:56.049Z,18.50
2022-10-29T09:38:34.346Z,18.50
2022-10-29T09:41:03.828Z,18.60
2022-10-29T09:43:45.969Z,18.60
2022-10-29T09:46:40.895Z,18.60
2022-10-29T09:49:13.664Z,18.60
2022-10-29T09:51:50.818Z,18.60
2022-10-29T09:54:18.107Z,18.60
2022-10-29T09:56:48.539Z,18.70
2022-10-29T09:59:38.676Z,18.70
2022-10-29T10:02:29.399Z,18.80
2022-10-29T10:05:02.522Z,18.80
2022-10-29T10:07:29.458Z,18.90
2022-10-29T10:10:01.447Z,18.90
2022-10-29T10:12:48.445Z,19.00
2022-10-29T10:15:28.311Z,19.10
2022-10-29T10:18:01.101Z,19.30
2022-10-29T10:21:24.137Z,19.30
2022-10-29T10:23:55.418Z,19.40
2022-10-29T10:26:45.345Z,19.50
2022-10-29T10:29:14.897Z,19.70
2022-10-29T10:32:06.038Z,19.90
2022-10-29T10:34:32.761Z,20.10
2022-10-29T10:37:03.994Z,20.20
2022-10-29T10:39:42.507Z,20.50
2022-10-29T10:42:27.460Z,20.70
2022-10-29T10:45:02.734Z,20.90
2022-10-29T10:47:36.732Z,21.10
2022-10-29T10:50:24.697Z,21.40
2022-10-29T10:52:55.309Z,21.70
2022-10-29T10:55:24.183Z,21.90
2022-10-29T10:57:58.512Z,22.10
2022-10-29T11:00:26.438Z,22.30
2022-10-29T11:06:03.124Z,22.60
2022-10-29T11:08:45.282Z,22.70
2022-10-29T11:11:19.791Z,22.80
2022-10-29T11:13:47.876Z,22.90
2022-10-29T11:16:28.055Z,23.10
2022-10-29T11:19:25.125Z,23.20
2022-10-29T11:22:03.426Z,23.20
2022-10-29T11:24:54.060Z,23.20
2022-10-29T11:27:35.726Z,23.10
2022-10-29T11:30:10.124Z,23.10
2022-10-29T11:32:57.689Z,23.00
2022-10-29T11:35:36.859Z,22.90
2022-10-29T11:38:18.663Z,23.00
2022-10-29T11:41:12.987Z,23.00
2022-10-29T11:43:39.910Z,23.10
2022-10-29T11:46:20.234Z,23.20
2022-10-29T11:49:24.442Z,23.20
2022-10-29T11:51:56.231Z,23.30
2022-10-29T11:54:40.845Z,23.40
2022-10-29T11:57:33.907Z,23.50
2022-10-29T12:00:19.986Z,23.60
2022-10-29T12:03:21.129Z,23.60
2022-10-29T12:05:56.488Z,23.70
2022-10-29T12:08:41.368Z,23.90
2022-10-29T12:11:37.936Z,24.00
2022-10-29T12:14:23.609Z,24.20
2022-10-29T12:17:07.094Z,24.30
2022-10-29T12:19:52.583Z,24.40
2022-10-29T12:22:36.405Z,24.50
2022-10-29T12:25:28.902Z,24.60
2022-10-29T12:28:07.358Z,24.60
2022-10-29T12:30:58.009Z,24.80
2022-10-29T12:33:32.228Z,24.80
2022-10-29T12:36:20.973Z,24.90
2022-10-29T12:38:55.583Z,25.00
2022-10-29T12:41:40.567Z,25.00
2022-10-29T12:44:22.011Z,25.10
2022-10-29T12:47:10.029Z,25.10
2022-10-29T12:49:45.454Z,25.20
2022-10-29T12:52:43.821Z,25.30
2022-10-29T12:55:13.637Z,25.30
2022-10-29T12:57:40.651Z,25.40
2022-10-29T13:00:27.300Z,25.50
2022-10-29T13:02:55.576Z,25.60
2022-10-29T13:05:25.793Z,25.70
2022-10-29T13:08:06.588Z,25.80
2022-10-29T13:10:33.218Z,25.90
2022-10-29T13:13:18.439Z,26.00
2022-10-29T13:15:58.502Z,26.00
2022-10-29T13:18:40.353Z,26.10
2022-10-29T13:21:08.227Z,26.10
2022-10-29T13:23:38.637Z,26.20
2022-10-29T13:26:07.106Z,26.30
2022-10-29T13:28:36.582Z,26.20
2022-10-29T13:31:06.064Z,26.20
2022-10-29T13:33:32.768Z,26.10
2022-10-29T13:36:04.298Z,26.00
2022-10-29T13:39:06.076Z,26.00
2022-10-29T13:41:44.461Z,25.90
2022-10-29T13:44:17.281Z,25.80
2022-10-29T13:46:57.469Z,25.70
2022-10-29T13:49:45.264Z,25.60
2022-10-29T13:52:16.696Z,25.50
2022-10-29T13:54:58.616Z,25.40
2022-10-29T13:57:34.221Z,25.30
2022-10-29T14:00:13.158Z,25.20
2022-10-29T14:02:42.694Z,25.10
2022-10-29T14:05:14.971Z,25.00
2022-10-29T14:07:58.523Z,25.00
2022-10-29T14:10:36.682Z,24.90
2022-10-29T14:13:20.658Z,24.90
2022-10-29T14:16:06.822Z,24.80
2022-10-29T14:18:40.875Z,24.80
2022-10-29T14:21:17.238Z,24.70
2022-10-29T14:24:06.419Z,24.70
2022-10-29T14:26:35.840Z,24.60
2022-10-29T14:29:21.355Z,24.50
2022-10-29T14:32:08.313Z,24.40
2022-10-29T14:34:35.155Z,24.30
2022-10-29T14:37:31.683Z,24.30
2022-10-29T14:40:03.366Z,24.20
2022-10-29T14:42:34.536Z,24.10
2022-10-29T14:45:06.377Z,24.10
2022-10-29T14:47:37.793Z,24.10
2022-10-29T14:50:14.425Z,24.00
2022-10-29T14:52:48.549Z,24.00
2022-10-29T14:55:32.544Z,23.90
2022-10-29T14:58:10.357Z,23.90
2022-10-29T15:00:40.146Z,23.90
2022-10-29T15:03:07.761Z,23.80
2022-10-29T15:05:39.159Z,23.80
2022-10-29T15:08:19.073Z,23.70
2022-10-29T15:10:57.428Z,23.70
2022-10-29T15:13:27.091Z,23.60
2022-10-29T15:16:15.907Z,23.60
2022-10-29T15:18:48.324Z,23.50
2022-10-29T15:21:26.922Z,23.50
2022-10-29T15:23:59.628Z,23.40
2022-10-29T15:26:26.986Z,23.30
2022-10-29T15:28:55.997Z,23.30
2022-10-29T15:31:42.845Z,23.20
2022-10-29T15:34:15.102Z,23.20
2022-10-29T15:36:50.901Z,23.10
2022-10-29T15:39:26.675Z,23.00
2022-10-29T15:41:58.269Z,22.90
2022-10-29T15:44:36.766Z,22.90
2022-10-29T15:47:20.209Z,22.80
2022-10-29T15:49:47.155Z,22.80
2022-10-29T15:52:18.872Z,22.70
2022-10-29T15:54:46.843Z,22.70
2022-10-29T15:57:15.761Z,22.60
2022-10-29T15:59:42.552Z,22.50
2022-10-29T16:02:18.589Z,22.50
2022-10-29T16:04:45.460Z,22.40
2022-10-29T16:07:16.200Z,22.40
2022-10-29T16:09:49.445Z,22.30
2022-10-29T16:12:19.238Z,22.20
2022-10-29T16:14:46.162Z,22.10
2022-10-29T16:17:21.121Z,22.10
2022-10-29T16:19:48.261Z,22.10
2022-10-29T16:22:20.374Z,22.00
2022-10-29T16:24:47.502Z,22.00
2022-10-29T16:27:16.884Z,21.90
2022-10-29T16:29:43.929Z,21.90
2022-10-29T16:32:19.375Z,21.80
2022-10-29T16:34:46.191Z,21.80
2022-10-29T16:37:15.442Z,21.80
2022-10-29T16:39:45.285Z,21.70
2022-10-29T16:42:29.048Z,21.70
2022-10-29T16:44:56.198Z,21.70
2022-10-29T16:47:23.046Z,21.70
2022-10-29T16:49:49.909Z,21.60
2022-10-29T16:52:20.960Z,21.60
2022-10-29T16:54:49.102Z,21.60
2022-10-29T16:57:15.946Z,21.50
2022-10-29T16:59:45.450Z,21.50
2022-10-29T17:02:12.235Z,21.50
2022-10-29T17:04:38.972Z,21.50
2022-10-29T17:07:05.886Z,21.40
2022-10-29T17:09:35.345Z,21.40
2022-10-29T17:12:02.586Z,21.40
2022-10-29T17:14:29.270Z,21.30
2022-10-29T17:16:57.297Z,21.30
2022-10-29T17:19:24.246Z,21.30
2022-10-29T17:21:51.109Z,21.30
2022-10-29T17:24:17.943Z,21.20
2022-10-29T17:26:44.666Z,21.30
2022-10-29T17:29:11.410Z,21.20
2022-10-29T17:31:38.104Z,21.20
2022-10-29T17:34:04.911Z,21.20
2022-10-29T17:36:31.657Z,21.20
2022-10-29T17:38:58.455Z,21.20
2022-10-29T17:41:28.356Z,21.20
2022-10-29T17:43:55.228Z,21.10
2022-10-29T17:46:22.000Z,21.10
2022-10-29T17:48:49.487Z,21.10
2022-10-29T17:51:16.486Z,21.10
2022-10-29T17:53:43.283Z,21.00
2022-10-29T17:56:09.999Z,21.00
2022-10-29T17:58:39.603Z,20.90
2022-10-29T18:01:08.057Z,20.90
2022-10-29T18:03:35.553Z,20.90
2022-10-29T18:06:04.324Z,20.80
2022-10-29T18:08:31.518Z,20.80
2022-10-29T18:11:10.172Z,20.80
2022-10-29T18:13:41.334Z,20.80
2022-10-29T18:16:18.336Z,20.70
2022-10-29T18:19:00.863Z,20.70
2022-10-29T18:21:29.644Z,20.60
2022-10-29T18:23:56.705Z,20.60
2022-10-29T18:26:23.378Z,20.60
2022-10-29T18:28:50.293Z,20.50
2022-10-29T18:31:17.042Z,20.50
2022-10-29T18:33:43.884Z,20.50
2022-10-29T18:36:11.409Z,20.40
2022-10-29T18:38:39.090Z,20.40
2022-10-29T18:41:06.671Z,20.30
2022-10-29T18:43:33.683Z,20.30
2022-10-29T18:46:04.626Z,20.30
2022-10-29T18:48:31.754Z,20.30
2022-10-29T18:51:29.395Z,20.20
2022-10-29T18:53:57.965Z,20.20
2022-10-29T18:56:26.554Z,20.20
2022-10-29T18:58:55.774Z,20.10
2022-10-29T19:01:25.368Z,20.10
2022-10-29T19:03:54.606Z,20.10
2022-10-29T19:06:23.275Z,20.10
2022-10-29T19:08:50.546Z,20.10
2022-10-29T19:11:20.875Z,20.00
2022-10-29T19:14:02.261Z,20.00
2022-10-29T19:16:30.608Z,20.00
2022-10-29T19:18:59.778Z,20.00
2022-10-29T19:21:27.038Z,20.00
2022-10-29T19:23:59.047Z,20.00
2022-10-29T19:26:28.401Z,20.00
2022-10-29T19:28:55.870Z,20.00
2022-10-29T19:31:26.259Z,20.00
2022-10-29T19:33:55.640Z,20.00
2022-10-29T19:36:23.797Z,20.00
2022-10-29T19:38:50.699Z,20.00
2022-10-29T19:41:18.312Z,20.00
2022-10-29T19:43:45.911Z,20.00
2022-10-29T19:46:15.874Z,19.90
2022-10-29T19:48:43.386Z,19.90
2022-10-29T19:51:10.912Z,19.90
2022-10-29T19:53:38.675Z,19.90
2022-10-29T19:56:07.475Z,19.80
2022-10-29T19:58:34.321Z,19.80
2022-10-29T20:01:06.638Z,19.80
2022-10-29T20:03:33.592Z,19.80
2022-10-29T20:06:00.559Z,19.70
2022-10-29T20:08:27.537Z,19.70
2022-10-29T20:10:58.633Z,19.60
2022-10-29T20:13:26.295Z,19.60
2022-10-29T20:15:53.654Z,19.60
2022-10-29T20:18:21.077Z,19.50
2022-10-29T20:20:56.896Z,19.50
2022-10-29T20:23:25.618Z,19.50
2022-10-29T20:25:52.652Z,19.40
2022-10-29T20:28:19.542Z,19.40
2022-10-29T20:30:46.271Z,19.40
2022-10-29T20:33:13.097Z,19.40
2022-10-29T20:35:40.019Z,19.30
2022-10-29T20:38:06.995Z,19.30
2022-10-29T20:40:33.767Z,19.30
2022-10-29T20:43:03.364Z,19.30
2022-10-29T20:45:30.149Z,19.20
2022-10-29T20:47:57.383Z,19.20
2022-10-29T20:50:24.295Z,19.20
2022-10-29T20:52:51.359Z,19.20
2022-10-29T20:55:20.973Z,19.10
2022-10-29T20:57:47.796Z,19.10
2022-10-29T21:00:14.933Z,19.10
2022-10-29T21:02:41.768Z,19.10
2022-10-29T21:05:08.980Z,19.00
2022-10-29T21:07:35.775Z,19.00
2022-10-29T21:10:02.612Z,19.00
2022-10-29T21:12:29.379Z,19.00
2022-10-29T21:14:56.230Z,18.90
2022-10-29T21:17:23.072Z,18.90
2022-10-29T21:19:49.759Z,18.90
2022-10-29T21:22:18.990Z,18.80
2022-10-29T21:24:48.910Z,18.80
2022-10-29T21:27:16.055Z,18.80
2022-10-29T21:29:42.791Z,18.70
2022-10-29T21:32:12.832Z,18.70
2022-10-29T21:34:42.708Z,18.70
2022-10-29T21:37:09.416Z,18.60
2022-10-29T21:39:36.134Z,18.60
2022-10-29T21:42:03.132Z,18.50
2022-10-29T21:44:29.857Z,18.50
2022-10-29T21:46:56.676Z,18.50
2022-10-29T21:49:23.431Z,18.40
2022-10-29T21:51:50.449Z,18.40
2022-10-29T21:54:17.279Z,18.40
2022-10-29T21:56:44.073Z,18.40
2022-10-29T21:59:10.751Z,18.30
2022-10-29T22:01:37.686Z,18.30
2022-10-29T22:04:04.562Z,18.30
2022-10-29T22:06:31.394Z,18.20
2022-10-29T22:08:59.767Z,18.20
2022-10-29T22:11:28.147Z,18.20
2022-10-29T22:13:55.480Z,18.10
2022-10-29T22:16:22.865Z,18.10
2022-10-29T22:18:50.938Z,18.10
2022-10-29T22:21:22.163Z,18.00
2022-10-29T22:23:51.601Z,18.00
2022-10-29T22:26:20.867Z,18.00
2022-10-29T22:28:48.445Z,18.00
2022-10-29T22:31:17.370Z,17.90
2022-10-29T22:33:44.887Z,17.90
2022-10-29T22:36:16.080Z,17.90
2022-10-29T22:38:43.114Z,17.90
2022-10-29T22:41:15.399Z,17.80
2022-10-29T22:43:42.530Z,17.80
2022-10-29T22:46:10.623Z,17.80
2022-10-29T22:48:37.684Z,17.80
2022-10-29T22:51:12.394Z,17.70
2022-10-29T22:53:39.256Z,17.70
2022-10-29T22:56:12.754Z,17.70
2022-10-29T22:58:39.650Z,17.60
2022-10-29T23:01:14.978Z,17.60
2022-10-29T23:03:42.550Z,17.60
2022-10-29T23:06:11.874Z,17.50
2022-10-29T23:08:38.877Z,17.50
2022-10-29T23:11:20.672Z,17.50
2022-10-29T23:13:55.286Z,17.40
2022-10-29T23:16:23.517Z,17.40
2022-10-29T23:18:52.066Z,17.40
2022-10-29T23:21:19.663Z,17.30
2022-10-29T23:23:47.342Z,17.30
2022-10-29T23:26:15.254Z,17.20
2022-10-29T23:28:42.972Z,17.20
2022-10-29T23:31:20.704Z,17.10
2022-10-29T23:33:50.017Z,17.10
2022-10-29T23:36:18.267Z,17.10
2022-10-29T23:38:45.194Z,17.10
2022-10-29T23:41:12.825Z,17.00
2022-10-29T23:43:39.832Z,17.00
2022-10-29T23:46:07.186Z,17.00
2022-10-29T23:48:33.986Z,16.90
2022-10-29T23:51:00.739Z,16.90
2022-10-29T23:53:30.343Z,16.90
2022-10-29T23:55:57.161Z,16.80
2022-10-29T23:58:23.923Z,16.80
